createdAt,value
2023-05-24T00:01:43.485Z,6.95
2023-05-24T00:04:12.283Z,6.72
2023-05-24T00:06:40.468Z,7.03
2023-05-24T00:09:09.273Z,5.65
2023-05-24T00:11:39.159Z,5.95
2023-05-24T00:14:07.768Z,6.07
2023-05-24T00:16:37.098Z,4.95
2023-05-24T00:19:08.544Z,4.93
2023-05-24T00:21:36.819Z,4.53
2023-05-24T00:24:05.077Z,5.15
2023-05-24T00:26:33.095Z,5.35
2023-05-24T00:29:01.082Z,4.80
2023-05-24T00:31:29.456Z,4.45
2023-05-24T00:33:57.805Z,4.63
2023-05-24T00:36:29.521Z,4.78
2023-05-24T00:38:57.878Z,4.57
2023-05-24T00:41:26.035Z,4.38
2023-05-24T00:43:54.705Z,4.22
2023-05-24T00:46:28.063Z,4.45
2023-05-24T00:48:57.066Z,4.43
2023-05-24T00:51:28.264Z,3.67
2023-05-24T00:53:58.854Z,3.60
2023-05-24T00:56:29.155Z,4.18
2023-05-24T00:58:58.213Z,3.60
2023-05-24T01:01:31.610Z,3.47
2023-05-24T01:04:02.839Z,3.83
2023-05-24T01:06:33.506Z,3.95
2023-05-24T01:09:15.156Z,3.58
2023-05-24T01:12:02.484Z,3.78
2023-05-24T01:14:41.178Z,3.10
2023-05-24T01:17:16.791Z,3.40
2023-05-24T01:20:07.439Z,3.70
2023-05-24T01:23:07.423Z,3.60
2023-05-24T01:25:48.643Z,3.20
2023-05-24T01:28:19.994Z,3.35
2023-05-24T01:30:50.563Z,4.95
2023-05-24T01:33:19.274Z,3.88
2023-05-24T01:35:48.002Z,3.88
2023-05-24T01:38:19.882Z,3.72
2023-05-24T01:40:51.466Z,3.45
2023-05-24T01:43:31.334Z,3.45
2023-05-24T01:46:06.475Z,3.83
2023-05-24T01:48:44.065Z,3.72
2023-05-24T01:51:17.687Z,4.38
2023-05-24T01:53:50.430Z,3.70
2023-05-24T01:56:20.911Z,3.65
2023-05-24T01:58:55.435Z,4.00
2023-05-24T02:01:24.664Z,3.97
2023-05-24T02:03:53.738Z,3.72
2023-05-24T02:06:23.840Z,4.10
2023-05-24T02:08:53.352Z,3.58
2023-05-24T02:11:23.579Z,3.13
2023-05-24T02:13:53.039Z,3.67
2023-05-24T02:16:24.088Z,3.40
2023-05-24T02:18:52.315Z,3.33
2023-05-24T02:21:20.955Z,3.72
2023-05-24T02:23:50.292Z,3.45
2023-05-24T02:26:19.635Z,3.58
2023-05-24T02:28:48.533Z,3.90
2023-05-24T02:31:19.655Z,3.20
2023-05-24T02:33:47.906Z,3.65
2023-05-24T02:36:16.802Z,3.47
2023-05-24T02:38:44.874Z,3.45
2023-05-24T02:41:17.864Z,3.55
2023-05-24T02:43:46.278Z,3.33
2023-05-24T02:46:14.892Z,3.95
2023-05-24T02:48:44.272Z,3.53
2023-05-24T02:51:12.294Z,4.13
2023-05-24T02:53:43.692Z,4.40
2023-05-24T02:56:13.814Z,6.10
2023-05-24T02:58:42.394Z,3.90
2023-05-24T03:01:10.859Z,4.03
2023-05-24T03:03:39.263Z,4.65
2023-05-24T03:06:09.359Z,3.60
2023-05-24T03:08:38.565Z,4.28
2023-05-24T03:11:07.364Z,4.55
2023-05-24T03:13:35.452Z,4.10
2023-05-24T03:16:03.893Z,4.20
2023-05-24T03:18:32.295Z,5.28
2023-05-24T03:21:01.055Z,3.85
2023-05-24T03:23:30.418Z,3.55
2023-05-24T03:25:58.387Z,3.85
2023-05-24T03:28:27.962Z,4.03
2023-05-24T03:30:59.025Z,3.83
2023-05-24T03:33:27.479Z,3.55
2023-05-24T03:35:55.783Z,4.18
2023-05-24T03:38:24.103Z,4.10
2023-05-24T03:40:53.875Z,4.45
2023-05-24T03:43:23.365Z,3.72
2023-05-24T03:45:52.242Z,4.18
2023-05-24T03:48:21.057Z,4.30
2023-05-24T03:50:49.070Z,4.10
2023-05-24T03:53:18.150Z,3.97
2023-05-24T03:55:46.476Z,3.60
2023-05-24T03:58:16.918Z,4.13
2023-05-24T04:00:47.663Z,5.10
2023-05-24T04:03:16.622Z,3.95
2023-05-24T04:05:47.301Z,3.40
2023-05-24T04:08:16.345Z,3.80
2023-05-24T04:10:44.799Z,3.85
2023-05-24T04:13:13.216Z,4.78
2023-05-24T04:15:43.482Z,4.10
2023-05-24T04:18:12.318Z,3.85
2023-05-24T04:20:41.944Z,4.15
2023-05-24T04:23:10.493Z,3.97
2023-05-24T04:25:41.245Z,4.22
2023-05-24T04:28:10.224Z,3.85
2023-05-24T04:30:38.833Z,3.63
2023-05-24T04:33:08.986Z,4.35
2023-05-24T04:35:38.223Z,3.85
2023-05-24T04:38:06.848Z,3.65
2023-05-24T04:40:35.120Z,4.18
2023-05-24T04:43:03.551Z,3.75
2023-05-24T04:45:33.414Z,3.85
2023-05-24T04:48:04.606Z,4.53
2023-05-24T04:50:35.675Z,4.30
2023-05-24T04:53:04.270Z,3.72
2023-05-24T04:55:32.799Z,3.72
2023-05-24T04:58:00.761Z,3.95
2023-05-24T05:00:28.819Z,3.58
2023-05-24T05:02:57.271Z,3.78
2023-05-24T05:05:25.465Z,3.97
2023-05-24T05:07:55.077Z,3.80
2023-05-24T05:10:23.910Z,3.70
2023-05-24T05:12:52.449Z,4.32
2023-05-24T05:15:24.288Z,4.65
2023-05-24T05:17:52.438Z,4.00
2023-05-24T05:20:20.615Z,3.67
2023-05-24T05:22:49.369Z,4.60
2023-05-24T05:25:18.985Z,3.60
2023-05-24T05:27:47.268Z,3.90
2023-05-24T05:30:15.621Z,3.42
2023-05-24T05:32:44.362Z,3.33
2023-05-24T05:35:12.458Z,3.40
2023-05-24T05:37:40.523Z,3.45
2023-05-24T05:40:09.421Z,4.18
2023-05-24T05:42:39.086Z,4.07
2023-05-24T05:45:08.746Z,3.80
2023-05-24T05:47:37.413Z,3.60
2023-05-24T05:50:06.324Z,4.07
2023-05-24T05:52:36.562Z,3.30
2023-05-24T05:55:05.083Z,4.00
2023-05-24T05:57:33.059Z,3.67
2023-05-24T06:00:02.583Z,3.55
2023-05-24T06:02:31.150Z,3.55
2023-05-24T06:05:00.092Z,4.75
2023-05-24T06:07:28.255Z,4.10
2023-05-24T06:09:56.302Z,3.55
2023-05-24T06:12:24.733Z,4.43
2023-05-24T06:14:53.021Z,3.28
2023-05-24T06:17:24.573Z,3.35
2023-05-24T06:19:53.756Z,4.50
2023-05-24T06:22:22.338Z,3.85
2023-05-24T06:24:50.645Z,3.63
2023-05-24T06:27:18.990Z,3.08
2023-05-24T06:29:49.278Z,3.47
2023-05-24T06:32:18.742Z,3.17
2023-05-24T06:34:48.479Z,3.05
2023-05-24T06:37:16.669Z,3.67
2023-05-24T06:39:44.740Z,4.18
2023-05-24T06:42:14.330Z,3.38
2023-05-24T06:44:42.359Z,3.00
2023-05-24T06:47:10.757Z,3.55
2023-05-24T06:49:39.054Z,2.50
2023-05-24T06:52:08.947Z,3.28
2023-05-24T06:54:37.506Z,2.78
2023-05-24T06:57:06.081Z,3.70
2023-05-24T06:59:34.684Z,2.95
2023-05-24T07:02:04.238Z,3.30
2023-05-24T07:04:32.892Z,3.03
2023-05-24T07:07:01.228Z,3.72
2023-05-24T07:09:30.829Z,2.70
2023-05-24T07:11:58.805Z,2.78
2023-05-24T07:14:27.666Z,2.38
2023-05-24T07:16:57.581Z,4.15
2023-05-24T07:19:29.271Z,2.72
2023-05-24T07:21:57.965Z,2.72
2023-05-24T07:24:26.563Z,3.40
2023-05-24T07:26:57.866Z,3.63
2023-05-24T07:29:26.781Z,3.95
2023-05-24T07:31:58.316Z,3.38
2023-05-24T07:34:30.009Z,2.88
2023-05-24T07:37:00.504Z,2.28
2023-05-24T07:39:29.229Z,2.97
2023-05-24T07:41:58.924Z,2.20
2023-05-24T07:44:27.040Z,2.83
2023-05-24T07:46:55.839Z,2.60
2023-05-24T07:49:24.163Z,2.40
2023-05-24T07:51:53.162Z,2.65
2023-05-24T07:54:21.872Z,2.53
2023-05-24T07:56:50.430Z,2.33
2023-05-24T07:59:20.084Z,2.45
2023-05-24T08:01:49.704Z,2.55
2023-05-24T08:04:17.616Z,2.15
2023-05-24T08:06:46.897Z,2.58
2023-05-24T08:09:15.046Z,2.42
2023-05-24T08:11:43.292Z,2.30
2023-05-24T08:14:11.843Z,2.58
2023-05-24T08:16:41.497Z,2.35
2023-05-24T08:19:09.521Z,2.65
2023-05-24T08:21:38.236Z,2.28
2023-05-24T08:24:09.344Z,2.10
2023-05-24T08:26:38.099Z,2.67
2023-05-24T08:29:07.973Z,3.50
2023-05-24T08:31:36.394Z,1.83
2023-05-24T08:34:06.348Z,2.25
2023-05-24T08:36:34.595Z,2.20
2023-05-24T08:39:05.131Z,2.33
2023-05-24T08:41:37.770Z,2.25
2023-05-24T08:44:07.684Z,2.92
2023-05-24T08:46:37.522Z,2.55
2023-05-24T08:49:09.249Z,2.10
2023-05-24T08:51:38.723Z,1.98
2023-05-24T08:54:08.461Z,2.40
2023-05-24T08:56:36.822Z,3.38
2023-05-24T08:59:04.979Z,2.40
2023-05-24T09:01:34.730Z,2.63
2023-05-24T09:04:07.732Z,1.98
2023-05-24T09:06:36.108Z,2.33
2023-05-24T09:09:07.846Z,2.50
2023-05-24T09:11:39.386Z,2.35
2023-05-24T09:14:07.594Z,2.55
2023-05-24T09:16:36.696Z,2.75
2023-05-24T09:19:04.757Z,2.92
2023-05-24T09:21:34.470Z,2.10
2023-05-24T09:24:03.571Z,2.72
2023-05-24T09:26:32.211Z,2.33
2023-05-24T09:29:00.235Z,2.55
2023-05-24T09:31:35.227Z,2.60
2023-05-24T09:34:04.224Z,3.25
2023-05-24T09:36:34.265Z,2.65
2023-05-24T09:39:10.336Z,2.45
2023-05-24T09:41:39.194Z,2.40
2023-05-24T09:44:08.101Z,2.45
2023-05-24T09:46:38.806Z,2.55
2023-05-24T09:49:08.679Z,3.28
2023-05-24T09:51:40.472Z,3.05
2023-05-24T09:54:10.117Z,2.13
2023-05-24T09:56:41.141Z,1.95
2023-05-24T09:59:10.276Z,2.55
2023-05-24T10:01:38.766Z,1.95
2023-05-24T10:04:09.801Z,2.63
2023-05-24T10:06:43.046Z,2.70
2023-05-24T10:09:11.600Z,2.75
2023-05-24T10:11:40.599Z,2.80
2023-05-24T10:14:11.955Z,2.50
2023-05-24T10:16:40.442Z,2.20
2023-05-24T10:19:08.614Z,3.10
2023-05-24T10:21:41.451Z,3.75
2023-05-24T10:24:12.546Z,2.80
2023-05-24T10:26:42.582Z,2.58
2023-05-24T10:29:18.740Z,2.65
2023-05-24T10:31:48.241Z,3.05
2023-05-24T10:34:16.960Z,2.63
2023-05-24T10:36:46.801Z,2.80
2023-05-24T10:39:15.031Z,3.25
2023-05-24T10:41:44.295Z,4.13
2023-05-24T10:44:13.549Z,4.40
2023-05-24T10:47:10.048Z,3.03
2023-05-24T10:49:39.703Z,3.17
2023-05-24T10:52:13.559Z,2.40
2023-05-24T10:54:52.607Z,2.40
2023-05-24T10:57:32.124Z,3.22
2023-05-24T11:03:03.985Z,2.60
2023-05-24T11:05:36.972Z,2.75
2023-05-24T11:08:09.339Z,2.58
2023-05-24T11:10:37.502Z,2.58
2023-05-24T11:13:09.397Z,2.25
2023-05-24T11:15:37.448Z,2.40
2023-05-24T11:18:23.665Z,2.80
2023-05-24T11:20:52.961Z,2.65
2023-05-24T11:23:22.432Z,3.13
2023-05-24T11:25:50.657Z,2.63
2023-05-24T11:28:19.366Z,2.80
2023-05-24T11:30:49.145Z,2.33
2023-05-24T11:33:20.044Z,2.80
2023-05-24T11:35:49.207Z,3.10
2023-05-24T11:38:18.027Z,2.85
2023-05-24T11:40:49.331Z,3.10
2023-05-24T11:43:19.561Z,3.13
2023-05-24T11:45:50.196Z,3.20
2023-05-24T11:48:19.564Z,3.65
2023-05-24T11:50:50.569Z,3.00
2023-05-24T11:53:20.686Z,3.40
2023-05-24T11:55:51.401Z,2.58
2023-05-24T11:58:25.273Z,2.22
2023-05-24T12:00:53.866Z,2.50
2023-05-24T12:03:22.016Z,2.58
2023-05-24T12:05:50.307Z,2.63
2023-05-24T12:08:18.648Z,2.90
2023-05-24T12:10:47.125Z,2.40
2023-05-24T12:13:24.833Z,2.63
2023-05-24T12:15:55.833Z,2.80
2023-05-24T12:18:27.446Z,2.50
2023-05-24T12:20:56.187Z,2.80
2023-05-24T12:23:27.938Z,2.80
2023-05-24T12:26:00.018Z,2.83
2023-05-24T12:28:35.941Z,2.63
2023-05-24T12:31:05.044Z,3.08
2023-05-24T12:33:34.490Z,2.55
2023-05-24T12:36:03.478Z,2.75
2023-05-24T12:38:33.114Z,3.05
2023-05-24T12:43:34.542Z,2.83
2023-05-24T12:46:03.445Z,2.40
2023-05-24T12:48:32.320Z,2.80
2023-05-24T12:51:00.693Z,2.78
2023-05-24T12:53:29.161Z,2.28
2023-05-24T12:55:57.928Z,2.25
2023-05-24T12:58:26.479Z,2.85
2023-05-24T13:00:56.405Z,2.65
2023-05-24T13:03:24.551Z,2.70
2023-05-24T13:05:52.693Z,2.42
2023-05-24T13:08:20.819Z,2.72
2023-05-24T13:10:50.718Z,2.30
2023-05-24T13:13:18.844Z,3.13
2023-05-24T13:15:47.447Z,2.60
2023-05-24T13:18:17.560Z,2.67
2023-05-24T13:20:45.901Z,2.72
2023-05-24T13:23:14.426Z,3.10
2023-05-24T13:25:42.943Z,2.53
2023-05-24T13:28:11.050Z,2.22
2023-05-24T13:30:42.126Z,2.67
2023-05-24T13:33:10.448Z,2.70
2023-05-24T13:35:43.893Z,2.72
2023-05-24T13:38:14.338Z,2.35
2023-05-24T13:40:42.977Z,3.42
2023-05-24T13:43:12.086Z,2.75
2023-05-24T13:45:40.488Z,2.35
2023-05-24T13:48:09.168Z,2.20
2023-05-24T13:50:39.711Z,2.40
2023-05-24T13:53:09.039Z,2.33
2023-05-24T13:55:39.057Z,2.40
2023-05-24T13:58:07.031Z,2.50
2023-05-24T14:00:36.078Z,2.40
2023-05-24T14:03:05.975Z,3.10
2023-05-24T14:05:34.450Z,2.85
2023-05-24T14:08:07.103Z,3.42
2023-05-24T14:13:26.595Z,3.13
2023-05-24T14:15:54.285Z,2.15
2023-05-24T14:18:22.450Z,2.78
2023-05-24T14:20:50.478Z,2.30
2023-05-24T14:23:20.014Z,2.78
2023-05-24T14:25:48.238Z,3.55
2023-05-24T14:28:16.478Z,2.72
2023-05-24T14:30:44.457Z,2.65
2023-05-24T14:33:12.794Z,2.83
2023-05-24T14:35:41.372Z,2.20
2023-05-24T14:38:11.100Z,2.45
2023-05-24T14:40:40.793Z,2.80
2023-05-24T14:43:10.695Z,2.55
2023-05-24T14:45:41.596Z,2.42
2023-05-24T14:48:12.318Z,2.58
2023-05-24T14:50:41.371Z,3.10
2023-05-24T14:53:09.823Z,3.00
2023-05-24T14:55:38.000Z,2.53
2023-05-24T14:58:09.225Z,2.58
2023-05-24T15:00:37.610Z,2.65
2023-05-24T15:03:08.090Z,2.65
2023-05-24T15:05:36.959Z,2.50
2023-05-24T15:08:05.877Z,3.35
2023-05-24T15:10:34.265Z,2.92
2023-05-24T15:13:03.772Z,2.58
2023-05-24T15:15:33.227Z,2.53
2023-05-24T15:18:01.217Z,2.53
2023-05-24T15:20:29.256Z,2.72
2023-05-24T15:22:57.261Z,3.15
2023-05-24T15:25:25.561Z,2.97
2023-05-24T15:27:53.500Z,2.25
2023-05-24T15:30:23.617Z,2.72
2023-05-24T15:32:53.397Z,2.67
2023-05-24T15:35:21.913Z,2.30
2023-05-24T15:37:49.965Z,2.30
2023-05-24T15:40:18.738Z,2.28
2023-05-24T15:42:46.649Z,2.58
2023-05-24T15:45:14.645Z,2.60
2023-05-24T15:47:42.536Z,2.67
2023-05-24T15:50:12.873Z,3.10
2023-05-24T15:52:41.018Z,2.55
2023-05-24T15:55:10.333Z,2.80
2023-05-24T15:57:38.207Z,2.80
2023-05-24T16:00:07.312Z,2.60
2023-05-24T16:02:35.673Z,3.15
2023-05-24T16:05:03.848Z,2.65
2023-05-24T16:07:33.296Z,3.13
2023-05-24T16:10:02.022Z,2.75
2023-05-24T16:12:30.906Z,3.60
2023-05-24T16:14:59.662Z,4.68
2023-05-24T16:17:28.158Z,3.50
2023-05-24T16:19:56.105Z,2.75
2023-05-24T16:22:24.688Z,4.22
2023-05-24T16:24:54.191Z,3.03
2023-05-24T16:27:22.901Z,3.38
2023-05-24T16:29:50.962Z,4.30
2023-05-24T16:32:19.273Z,3.40
2023-05-24T16:39:48.307Z,3.13
2023-05-24T16:42:17.833Z,3.30
2023-05-24T16:44:46.170Z,3.08
2023-05-24T16:47:14.633Z,4.05
2023-05-24T16:49:42.764Z,3.75
2023-05-24T16:52:11.197Z,3.30
2023-05-24T16:54:39.191Z,3.40
2023-05-24T16:57:07.813Z,3.85
2023-05-24T16:59:38.817Z,3.30
2023-05-24T17:02:07.197Z,2.78
2023-05-24T17:04:35.833Z,3.50
2023-05-24T17:07:04.513Z,2.72
2023-05-24T17:09:33.071Z,2.88
2023-05-24T17:12:02.901Z,3.13
2023-05-24T17:14:31.485Z,3.65
2023-05-24T17:17:01.284Z,3.00
2023-05-24T17:19:29.273Z,3.20
2023-05-24T17:21:57.418Z,3.45
2023-05-24T17:24:27.668Z,3.15
2023-05-24T17:26:55.853Z,2.88
2023-05-24T17:29:26.445Z,4.35
2023-05-24T17:31:54.749Z,3.33
2023-05-24T17:34:24.587Z,3.25
2023-05-24T17:36:52.926Z,3.80
2023-05-24T17:39:21.927Z,3.35
2023-05-24T17:41:49.988Z,3.63
2023-05-24T17:44:19.122Z,3.00
2023-05-24T17:46:47.256Z,3.35
2023-05-24T17:49:15.581Z,3.42
2023-05-24T17:51:47.796Z,3.65
2023-05-24T17:54:15.945Z,3.30
2023-05-24T17:56:44.090Z,3.53
2023-05-24T17:59:12.414Z,3.75
2023-05-24T18:01:41.001Z,3.65
2023-05-24T18:04:09.504Z,3.67
2023-05-24T18:06:42.176Z,3.08
2023-05-24T18:09:13.409Z,3.50
2023-05-24T18:11:41.438Z,3.30
2023-05-24T18:14:09.750Z,3.22
2023-05-24T18:16:37.881Z,2.80
2023-05-24T18:19:06.349Z,3.72
2023-05-24T18:21:35.369Z,3.30
2023-05-24T18:24:03.840Z,3.75
2023-05-24T18:26:33.530Z,3.15
2023-05-24T18:29:01.522Z,2.80
2023-05-24T18:31:32.224Z,3.22
2023-05-24T18:34:01.911Z,3.53
2023-05-24T18:36:30.125Z,2.67
2023-05-24T18:38:58.632Z,3.58
2023-05-24T18:41:26.731Z,2.60
2023-05-24T18:43:56.085Z,2.80
2023-05-24T18:46:26.099Z,2.97
2023-05-24T18:48:54.879Z,3.08
2023-05-24T18:51:22.874Z,3.53
2023-05-24T18:53:51.737Z,3.58
2023-05-24T18:56:19.785Z,2.88
2023-05-24T18:58:50.139Z,4.22
2023-05-24T19:01:21.457Z,2.85
2023-05-24T19:03:52.781Z,3.42
2023-05-24T19:06:23.074Z,2.63
2023-05-24T19:08:51.428Z,3.45
2023-05-24T19:11:20.080Z,4.10
2023-05-24T19:13:48.189Z,3.53
2023-05-24T19:16:18.325Z,2.90
2023-05-24T19:18:49.036Z,3.63
2023-05-24T19:21:17.559Z,3.30
2023-05-24T19:23:45.613Z,3.05
2023-05-24T19:26:17.890Z,2.92
2023-05-24T19:28:50.572Z,3.38
2023-05-24T19:31:19.251Z,3.50
2023-05-24T19:33:59.846Z,3.28
2023-05-24T19:36:34.019Z,3.80
2023-05-24T19:39:02.035Z,3.03
2023-05-24T19:41:30.856Z,3.40
2023-05-24T19:43:59.403Z,2.78
2023-05-24T19:46:27.894Z,2.90
2023-05-24T19:48:57.556Z,2.90
2023-05-24T19:51:25.874Z,3.90
2023-05-24T19:53:53.891Z,3.05
2023-05-24T19:56:23.425Z,4.03
2023-05-24T19:58:52.358Z,3.70
2023-05-24T20:01:20.403Z,3.33
2023-05-24T20:03:49.481Z,3.10
2023-05-24T20:06:21.027Z,3.13
2023-05-24T20:08:49.575Z,2.92
2023-05-24T20:11:19.364Z,2.85
2023-05-24T20:13:47.343Z,3.60
2023-05-24T20:16:15.587Z,3.58
2023-05-24T20:18:43.756Z,3.22
2023-05-24T20:21:12.276Z,3.10
2023-05-24T20:23:41.920Z,2.92
2023-05-24T20:26:12.582Z,3.22
2023-05-24T20:28:42.911Z,3.30
2023-05-24T20:31:10.962Z,3.35
2023-05-24T20:33:45.156Z,3.38
2023-05-24T20:36:14.925Z,3.75
2023-05-24T20:38:44.760Z,3.00
2023-05-24T20:41:12.963Z,3.25
2023-05-24T20:43:41.883Z,3.20
2023-05-24T20:46:12.315Z,3.38
2023-05-24T20:48:42.211Z,3.00
2023-05-24T20:51:14.557Z,2.70
2023-05-24T20:53:45.636Z,3.20
2023-05-24T20:56:13.898Z,2.95
2023-05-24T20:58:42.255Z,3.33
2023-05-24T21:01:10.610Z,4.60
2023-05-24T21:03:41.061Z,3.08
2023-05-24T21:06:09.222Z,3.25
2023-05-24T21:08:38.662Z,3.47
2023-05-24T21:11:10.661Z,3.30
2023-05-24T21:13:38.785Z,3.50
2023-05-24T21:16:08.225Z,3.33
2023-05-24T21:18:36.356Z,3.13
2023-05-24T21:21:04.695Z,3.00
2023-05-24T21:23:33.637Z,2.88
2023-05-24T21:26:02.764Z,3.83
2023-05-24T21:28:32.248Z,2.97
2023-05-24T21:31:01.714Z,3.40
2023-05-24T21:33:29.762Z,2.95
2023-05-24T21:36:00.864Z,2.90
2023-05-24T21:38:28.876Z,3.95
2023-05-24T21:40:57.440Z,2.95
2023-05-24T21:43:25.609Z,3.25
2023-05-24T21:45:54.896Z,3.60
2023-05-24T21:48:22.972Z,3.55
2023-05-24T21:50:51.906Z,3.22
2023-05-24T21:53:20.144Z,3.22
2023-05-24T21:55:48.257Z,2.90
2023-05-24T21:58:16.347Z,3.45
2023-05-24T22:00:48.104Z,3.53
2023-05-24T22:03:18.563Z,2.90
2023-05-24T22:05:46.814Z,2.95
2023-05-24T22:08:15.138Z,3.80
2023-05-24T22:10:44.110Z,3.00
2023-05-24T22:13:13.853Z,3.15
2023-05-24T22:15:42.044Z,4.25
2023-05-24T22:18:11.792Z,3.05
2023-05-24T22:20:41.191Z,3.38
2023-05-24T22:23:09.331Z,3.50
2023-05-24T22:25:37.268Z,3.75
2023-05-24T22:28:07.041Z,3.25
2023-05-24T22:30:36.950Z,3.05
2023-05-24T22:33:05.027Z,3.83
2023-05-24T22:35:33.676Z,3.72
2023-05-24T22:38:03.312Z,3.63
2023-05-24T22:40:31.288Z,4.00
2023-05-24T22:42:59.788Z,3.38
2023-05-24T22:45:27.862Z,3.65
2023-05-24T22:47:58.331Z,3.60
2023-05-24T22:50:27.014Z,3.38
2023-05-24T22:52:56.558Z,3.70
2023-05-24T22:55:26.371Z,3.53
2023-05-24T22:57:54.701Z,3.53
2023-05-24T23:00:22.835Z,3.20
2023-05-24T23:02:51.209Z,3.97
2023-05-24T23:05:21.609Z,3.58
2023-05-24T23:07:49.675Z,3.13
2023-05-24T23:10:17.818Z,3.20
2023-05-24T23:12:48.716Z,3.80
2023-05-24T23:15:18.393Z,3.45
2023-05-24T23:17:48.330Z,3.45
2023-05-24T23:20:16.750Z,3.92
2023-05-24T23:22:44.816Z,3.50
2023-05-24T23:25:13.118Z,3.53
2023-05-24T23:27:41.462Z,3.50
2023-05-24T23:30:11.600Z,4.05
2023-05-24T23:32:39.605Z,4.13
2023-05-24T23:35:08.090Z,4.47
2023-05-24T23:37:36.245Z,4.03
2023-05-24T23:40:06.603Z,4.32
2023-05-24T23:42:35.071Z,5.13
2023-05-24T23:45:03.404Z,3.70
2023-05-24T23:47:32.771Z,3.45
2023-05-24T23:50:00.771Z,4.32
2023-05-24T23:52:28.840Z,4.30
2023-05-24T23:54:57.177Z,4.57
2023-05-24T23:57:27.116Z,4.47
2023-05-24T23:59:55.459Z,5.47
